METAR AND TAF INFORMATION
METAR FOR TNCM
ADDS - METARS form results

(1703 UTC 21 February 2018)
Data provider http://aviationweather.gov/adds/metars/
 
METAR text: TNCM 211700Z 08015KT 030V110 9999 VCSH SCT016 SCT040 24/20 Q1021 A3017 RERA NOSIG
Conditions at: TNCM (ST MAARTEN JULIA, VI) observed 1700 UTC 21 February 2018
Temperature: 24.0°C (75°F)
Dewpoint: 20.0°C (68°F) [RH = 78%]
Pressure (altimeter): 30.15 inches Hg (1021.0 mb)
Winds: from the E (80 degrees) at 17 MPH (15 knots; 7.8 m/s)
Visibility: 6 or more miles (10+ km)
Ceiling: at least 12,000 feet AGL
Clouds: scattered clouds at 1600 feet AGL
scattered clouds at 4000 feet AGL
Weather: VCSH  (showers in vicinity)

METAR text: TNCM 211632Z 08015G29KT 040V120 3000 SHRA BKN014 24/21 Q1022 A3019 RERA TEMPO SHRA
Conditions at: TNCM (ST MAARTEN JULIA, VI) observed 1632 UTC 21 February 2018
Temperature: 24.0°C (75°F)
Dewpoint: 21.0°C (70°F) [RH = 83%]
Pressure (altimeter): 30.18 inches Hg (1022.0 mb)
Winds: from the E (80 degrees) at 17 MPH (15 knots; 7.8 m/s)
gusting to 33 MPH (29 knots; 15.1 m/s)
Visibility: 1.86 miles (2.99 km)
Ceiling: 1400 feet AGL
Clouds: broken clouds at 1400 feet AGL
Weather: SHRA  (rain showers)

Forecast for: TNCM (ST MAARTEN JULIA, VI)
Text: TNCM 211536Z 2116/2212 07015KT 3SM SHRA BKN018
Forecast period: 1600 to 1700 UTC 21 February 2018
Forecast type: FROM: standard forecast or significant change
Winds: from the ENE (70 degrees) at 17 MPH (15 knots; 7.8 m/s)
Visibility: 3 miles (5 km)
Ceiling: 1800 feet AGL
Clouds: broken clouds at 1800 feet AGL
Weather: SHRA  (rain showers)
Text: FM211700 07020KT P6SM SCT020
Forecast period: 1700 to 2300 UTC 21 February 2018
Forecast type: FROM: standard forecast or significant change
Winds: from the ENE (70 degrees) at 23 MPH (20 knots; 10.4 m/s)
Visibility: 6 or more miles (10+ km)
Clouds: scattered clouds at 2000 feet AGL
Weather: no significant weather forecast for this period
Text: FM212300 07012KT P6SM SCT018
Forecast period: 2300 UTC 21 February 2018 to 1200 UTC 22 February 2018
Forecast type: FROM: standard forecast or significant change
Winds: from the ENE (70 degrees) at 14 MPH (12 knots; 6.2 m/s)
Visibility: 6 or more miles (10+ km)
Clouds: scattered clouds at 1800 feet AGL
Weather: no significant weather forecast for this period

 AIRPORT MAP

 RUNWAY INFORMATION
Runway 09 Runway length 7708 ft Runway width 148 ft
Runway elevation 11 ft Runway displaced threshold 162 ft Runway heading 81
Runway 27 Runway length 7708 ft Runway width 148 ft
Runway elevation 11 ft Runway displaced threshold 394 ft Runway heading 261
Runway 10 Runway length 7152 ft Runway width 148 ft
Runway elevation 12 ft Runway displaced threshold 0 ft Runway heading 81
Runway 28 Runway length 7152 ft Runway width 148 ft
Runway elevation 9 ft Runway displaced threshold 0 ft Runway heading 261

 AIRPORT FREQUENCIES
Type APP Name JULIANA AP Frequency 128.95 MHZ
Type TWR Name JULIANA TW Frequency 118.7 MHZ

 AIRPORT NEAR NAVIGATION AIDS